Time;durP1;ratioP1;P1;durP2;ratioP2;P2;SDS_P1;SDS_P2;PMS_P1;PMS_P2;Temp;Humidity;BMP_temperature;BMP_pressure;BME280_temperature;BME280_humidity;BME280_pressure;Samples;Min_cycle;Max_cycle;Signal;HPM_P1;HPM_P2
2022/12/31 00:02:11;;;;;;;2.83;1.10;;;;;;;;;;4999256;28;92219;-66
2022/12/31 00:04:38;;;;;;;3.05;1.10;;;;;;;;;;5004318;28;92494;-67
2022/12/31 00:07:04;;;;;;;2.10;1.00;;;;;;;;;;5003563;28;92846;-65
2022/12/31 00:09:30;;;;;;;3.90;1.10;;;;;;;;;;5003998;28;92209;-65
2022/12/31 00:11:57;;;;;;;1.52;0.82;;;;;;;;;;5004175;28;92465;-66
2022/12/31 00:14:23;;;;;;;1.92;1.00;;;;;;;;;;5003911;28;93153;-66
2022/12/31 00:16:50;;;;;;;1.38;0.90;;;;;;;;;;5003278;28;92294;-65
2022/12/31 00:19:16;;;;;;;1.77;0.90;;;;;;;;;;5002373;28;94863;-66
2022/12/31 00:21:42;;;;;;;2.00;1.02;;;;;;;;;;5006121;28;92807;-63
2022/12/31 00:24:09;;;;;;;1.75;1.00;;;;;;;;;;5003672;28;92460;-64
2022/12/31 00:26:36;;;;;;;4.13;1.40;;;;;;;;;;5002846;28;92874;-62
2022/12/31 00:29:03;;;;;;;2.70;1.20;;;;;;;;;;5003688;28;92132;-63
2022/12/31 00:31:30;;;;;;;2.38;1.10;;;;;;;;;;5002260;28;92865;-65
2022/12/31 00:33:57;;;;;;;2.53;1.13;;;;;;;;;;5002961;28;93171;-65
2022/12/31 00:36:25;;;;;;;2.67;1.25;;;;;;;;;;5003530;28;91309;-65
2022/12/31 00:38:53;;;;;;;1.45;1.10;;;;;;;;;;5003509;28;92430;-64
2022/12/31 00:41:19;;;;;;;;;;;;;;;;;;5003315;28;92838;-66
2022/12/31 00:43:46;;;;;;;3.30;1.17;;;;;;;;;;5004505;28;113580;-65
2022/12/31 00:46:13;;;;;;;1.98;1.00;;;;;;;;;;5003103;28;93145;-65
2022/12/31 00:48:39;;;;;;;2.20;1.00;;;;;;;;;;5003032;28;92658;-66
2022/12/31 00:51:07;;;;;;;2.20;0.90;;;;;;;;;;5002836;28;92406;-65
2022/12/31 00:53:33;;;;;;;2.72;1.13;;;;;;;;;;5002911;28;93244;-66
2022/12/31 00:56:00;;;;;;;2.17;1.00;;;;;;;;;;5002858;28;92022;-65
2022/12/31 00:58:27;;;;;;;1.20;0.85;;;;;;;;;;5002701;28;92451;-65
2022/12/31 01:00:53;;;;;;;2.65;1.08;;;;;;;;;;5002725;28;92042;-65
2022/12/31 01:03:20;;;;;;;2.78;1.08;;;;;;;;;;5002875;28;92075;-65
2022/12/31 01:05:46;;;;;;;2.15;1.00;;;;;;;;;;5005750;28;92009;-65
2022/12/31 01:08:13;;;;;;;2.20;1.00;;;;;;;;;;5000899;28;94445;-64
2022/12/31 01:13:24;;;;;;;1.63;1.10;;;;;;;;;;5002849;28;93357;-65
2022/12/31 01:15:50;;;;;;;2.13;0.90;;;;;;;;;;5002673;28;92434;-64
2022/12/31 01:18:17;;;;;;;1.48;0.90;;;;;;;;;;5002554;28;92498;-65
2022/12/31 01:20:43;;;;;;;1.98;1.10;;;;;;;;;;5002364;28;92848;-67
2022/12/31 01:23:10;;;;;;;1.58;0.85;;;;;;;;;;5002088;28;92497;-64
2022/12/31 01:25:37;;;;;;;2.67;1.05;;;;;;;;;;5003222;28;92408;-66
2022/12/31 01:28:07;;;;;;;1.10;0.77;;;;;;;;;;5005261;28;93588;-64
2022/12/31 01:30:36;;;;;;;1.85;1.10;;;;;;;;;;5002585;28;92615;-64
2022/12/31 01:33:03;;;;;;;2.28;0.85;;;;;;;;;;5000764;28;96024;-66
2022/12/31 01:35:29;;;;;;;1.48;0.80;;;;;;;;;;5002340;28;92090;-67
2022/12/31 01:37:55;;;;;;;1.45;0.90;;;;;;;;;;5001982;28;92478;-67
2022/12/31 01:40:22;;;;;;;1.60;0.90;;;;;;;;;;5002260;28;93157;-66
2022/12/31 01:42:55;;;;;;;2.00;0.90;;;;;;;;;;5002129;28;91984;-67
2022/12/31 01:45:21;;;;;;;2.28;1.00;;;;;;;;;;5002522;28;92973;-66
2022/12/31 01:47:50;;;;;;;2.08;1.10;;;;;;;;;;5002192;28;93190;-66
2022/12/31 01:50:21;;;;;;;1.13;1.00;;;;;;;;;;5020865;28;91270;-66
2022/12/31 01:52:49;;;;;;;1.75;1.00;;;;;;;;;;5002149;28;92314;-66
2022/12/31 01:55:15;;;;;;;2.13;1.20;;;;;;;;;;5002605;28;92533;-66
2022/12/31 01:57:43;;;;;;;1.15;1.00;;;;;;;;;;5000341;28;94839;-67
2022/12/31 02:00:10;;;;;;;1.77;0.90;;;;;;;;;;5001040;28;92681;-66
2022/12/31 02:02:36;;;;;;;2.05;1.30;;;;;;;;;;5001458;28;92134;-66
2022/12/31 02:05:07;;;;;;;2.00;0.90;;;;;;;;;;5002163;28;92859;-67
2022/12/31 02:07:34;;;;;;;1.27;0.77;;;;;;;;;;5000419;28;93156;-66
2022/12/31 02:10:00;;;;;;;1.50;0.80;;;;;;;;;;5005322;28;92137;-67
2022/12/31 02:12:26;;;;;;;2.08;1.00;;;;;;;;;;4999981;28;94962;-66
2022/12/31 02:14:53;;;;;;;1.70;1.10;;;;;;;;;;5002861;28;92017;-67
2022/12/31 02:17:28;;;;;;;1.33;1.00;;;;;;;;;;5001253;28;92029;-65
2022/12/31 02:20:07;;;;;;;1.30;0.88;;;;;;;;;;5000523;28;94949;-67
2022/12/31 02:22:48;;;;;;;1.65;1.00;;;;;;;;;;4998653;28;94968;-67
2022/12/31 02:25:50;;;;;;;2.10;0.90;;;;;;;;;;5001670;28;95107;-66
2022/12/31 02:28:22;;;;;;;1.58;1.00;;;;;;;;;;4981710;28;96124;-66
2022/12/31 02:30:54;;;;;;;1.00;0.90;;;;;;;;;;4990219;28;92757;-68
2022/12/31 02:33:41;;;;;;;3.40;1.10;;;;;;;;;;5004554;28;93397;-65
2022/12/31 02:36:13;;;;;;;1.75;0.80;;;;;;;;;;4993316;28;92094;-66
2022/12/31 02:38:40;;;;;;;2.88;1.10;;;;;;;;;;5001629;28;92481;-66
2022/12/31 02:41:07;;;;;;;;;;;;;;;;;;5002452;28;91441;-66
2022/12/31 02:43:33;;;;;;;;;;;;;;;;;;5002760;28;112287;-66
2022/12/31 02:46:35;;;;;;;1.30;0.90;;;;;;;;;;4999423;28;118422;-66
2022/12/31 02:49:07;;;;;;;1.45;0.80;;;;;;;;;;4995795;28;95170;-65
2022/12/31 02:51:44;;;;;;;1.50;0.80;;;;;;;;;;5000522;28;92317;-67
2022/12/31 02:54:27;;;;;;;1.42;0.80;;;;;;;;;;5001702;28;92395;-67
2022/12/31 02:57:02;;;;;;;2.03;1.00;;;;;;;;;;5003696;28;92809;-67
2022/12/31 03:02:50;;;;;;;2.05;0.90;;;;;;;;;;4955005;28;93383;-67
2022/12/31 03:05:18;;;;;;;1.58;0.90;;;;;;;;;;4995515;28;92092;-64
2022/12/31 03:07:44;;;;;;;1.45;0.80;;;;;;;;;;5001404;28;92939;-65
2022/12/31 03:10:11;;;;;;;2.03;1.05;;;;;;;;;;5002148;28;93214;-66
2022/12/31 03:12:45;;;;;;;1.20;0.77;;;;;;;;;;5004543;28;92080;-65
2022/12/31 03:15:19;;;;;;;2.40;1.00;;;;;;;;;;5003710;28;94674;-66
2022/12/31 03:17:49;;;;;;;2.00;0.90;;;;;;;;;;4991422;28;93001;-64
2022/12/31 03:23:03;;;;;;;0.80;0.80;;;;;;;;;;4992248;28;92584;-65
2022/12/31 03:25:36;;;;;;;2.95;1.00;;;;;;;;;;5004851;28;92445;-67
2022/12/31 03:28:04;;;;;;;1.58;0.90;;;;;;;;;;4991198;28;92216;-65
2022/12/31 03:30:31;;;;;;;1.00;0.90;;;;;;;;;;5004504;28;93312;-65
2022/12/31 03:32:58;;;;;;;1.15;0.70;;;;;;;;;;5005066;28;91246;-66
2022/12/31 03:35:26;;;;;;;1.77;0.90;;;;;;;;;;5003242;28;92190;-66
2022/12/31 03:37:52;;;;;;;0.80;0.70;;;;;;;;;;5004051;28;92989;-65
2022/12/31 03:40:20;;;;;;;1.33;0.70;;;;;;;;;;5003198;28;94802;-65
2022/12/31 03:42:46;;;;;;;1.65;0.90;;;;;;;;;;5006894;28;94885;-64
2022/12/31 03:45:13;;;;;;;1.00;0.80;;;;;;;;;;5004239;28;92065;-65
2022/12/31 03:47:39;;;;;;;2.03;0.80;;;;;;;;;;5003896;28;92764;-63
2022/12/31 03:50:07;;;;;;;1.70;0.88;;;;;;;;;;5004362;28;93239;-67
2022/12/31 03:52:33;;;;;;;0.95;0.68;;;;;;;;;;5003686;28;92041;-66
2022/12/31 03:55:01;;;;;;;2.65;1.73;;;;;;;;;;5002994;28;94826;-66
2022/12/31 03:57:28;;;;;;;0.70;0.65;;;;;;;;;;5003770;28;92756;-65
2022/12/31 03:59:54;;;;;;;1.05;0.88;;;;;;;;;;5003172;28;92676;-64
2022/12/31 04:02:21;;;;;;;1.40;0.80;;;;;;;;;;5004871;28;94074;-65
2022/12/31 04:04:54;;;;;;;1.83;0.90;;;;;;;;;;5002594;28;94913;-66
2022/12/31 04:07:21;;;;;;;1.77;0.70;;;;;;;;;;5003566;28;94866;-64
2022/12/31 04:09:47;;;;;;;1.73;0.90;;;;;;;;;;5004105;28;92708;-65
2022/12/31 04:12:13;;;;;;;1.10;0.80;;;;;;;;;;5002944;28;92135;-65
2022/12/31 04:14:40;;;;;;;1.10;0.80;;;;;;;;;;5004417;28;93053;-65
2022/12/31 04:17:06;;;;;;;0.85;0.65;;;;;;;;;;5002386;28;93001;-64
2022/12/31 04:19:33;;;;;;;1.20;0.90;;;;;;;;;;5002458;28;92374;-64
2022/12/31 04:21:59;;;;;;;1.83;0.80;;;;;;;;;;5003232;28;92918;-64
2022/12/31 04:24:26;;;;;;;1.35;0.90;;;;;;;;;;5006702;28;93011;-65
2022/12/31 04:26:52;;;;;;;1.98;0.77;;;;;;;;;;5003247;28;92359;-64
2022/12/31 04:29:18;;;;;;;0.85;0.80;;;;;;;;;;5002108;28;95505;-65
2022/12/31 04:31:45;;;;;;;2.15;0.80;;;;;;;;;;5002013;28;92659;-66
2022/12/31 04:34:11;;;;;;;1.25;0.82;;;;;;;;;;5003518;28;92394;-67
2022/12/31 04:36:38;;;;;;;1.55;0.88;;;;;;;;;;5003016;28;93055;-65
2022/12/31 04:39:04;;;;;;;1.58;0.90;;;;;;;;;;5003356;28;92341;-64
2022/12/31 04:41:30;;;;;;;1.42;0.80;;;;;;;;;;5003363;28;93479;-64
2022/12/31 04:43:58;;;;;;;1.08;0.70;;;;;;;;;;5003387;28;92839;-66
2022/12/31 04:46:31;;;;;;;2.85;0.90;;;;;;;;;;5006809;28;92100;-66
2022/12/31 04:48:58;;;;;;;1.35;0.70;;;;;;;;;;5003604;28;93017;-65
2022/12/31 04:51:25;;;;;;;1.05;0.70;;;;;;;;;;5001707;28;92015;-64
2022/12/31 04:53:52;;;;;;;1.70;0.90;;;;;;;;;;5001465;28;94748;-64
2022/12/31 04:56:19;;;;;;;0.95;0.80;;;;;;;;;;5002759;28;92152;-65
2022/12/31 04:58:45;;;;;;;1.23;0.80;;;;;;;;;;5002614;28;92645;-65
2022/12/31 05:01:12;;;;;;;1.27;0.75;;;;;;;;;;5003058;28;92615;-64
2022/12/31 05:03:39;;;;;;;0.88;0.60;;;;;;;;;;5002848;28;92701;-65
2022/12/31 05:06:07;;;;;;;1.83;0.82;;;;;;;;;;5002867;28;92155;-65
2022/12/31 05:08:33;;;;;;;1.48;0.80;;;;;;;;;;5005573;28;92759;-65
2022/12/31 05:10:59;;;;;;;2.30;1.00;;;;;;;;;;5003528;28;91320;-66
2022/12/31 05:13:26;;;;;;;1.55;0.80;;;;;;;;;;5003037;28;92026;-63
2022/12/31 05:15:58;;;;;;;1.42;0.90;;;;;;;;;;5002559;28;92682;-65
2022/12/31 05:18:25;;;;;;;1.00;0.80;;;;;;;;;;5000915;28;94422;-66
2022/12/31 05:20:51;;;;;;;1.48;0.93;;;;;;;;;;5002592;28;95153;-65
2022/12/31 05:23:17;;;;;;;1.17;0.90;;;;;;;;;;5002418;28;92799;-66
2022/12/31 05:25:44;;;;;;;0.80;0.80;;;;;;;;;;5002468;28;92127;-65
2022/12/31 05:28:11;;;;;;;0.70;0.70;;;;;;;;;;5002572;28;92624;-65
2022/12/31 05:30:38;;;;;;;1.63;0.80;;;;;;;;;;5005391;28;92748;-65
2022/12/31 05:33:04;;;;;;;1.75;0.80;;;;;;;;;;5002242;28;92354;-63
2022/12/31 05:35:31;;;;;;;1.45;0.80;;;;;;;;;;5001583;28;92576;-65
2022/12/31 05:37:58;;;;;;;1.35;0.77;;;;;;;;;;5001259;28;92089;-65
2022/12/31 05:40:25;;;;;;;1.00;0.70;;;;;;;;;;5002584;28;92524;-65
2022/12/31 05:42:51;;;;;;;1.15;0.80;;;;;;;;;;5000627;28;95124;-65
2022/12/31 05:45:18;;;;;;;1.10;0.70;;;;;;;;;;5002522;28;92170;-65
2022/12/31 05:47:48;;;;;;;1.10;0.73;;;;;;;;;;5001962;28;93128;-66
2022/12/31 05:50:14;;;;;;;1.15;0.80;;;;;;;;;;5002308;28;93153;-66
2022/12/31 05:52:42;;;;;;;0.90;0.70;;;;;;;;;;5003701;28;92324;-65
2022/12/31 05:55:13;;;;;;;1.88;0.80;;;;;;;;;;5002132;28;92707;-64
2022/12/31 05:57:40;;;;;;;1.13;0.70;;;;;;;;;;5001343;28;92476;-64
2022/12/31 06:00:07;;;;;;;0.80;0.80;;;;;;;;;;5002829;28;92421;-65
2022/12/31 06:02:38;;;;;;;0.77;0.68;;;;;;;;;;5001000;28;92411;-66
2022/12/31 06:05:05;;;;;;;0.70;0.70;;;;;;;;;;5002199;28;92409;-66
2022/12/31 06:07:31;;;;;;;0.70;0.60;;;;;;;;;;5000549;28;94642;-64
2022/12/31 06:09:58;;;;;;;0.77;0.63;;;;;;;;;;5001995;28;92787;-65
2022/12/31 06:12:24;;;;;;;0.88;0.77;;;;;;;;;;5004809;28;92725;-65
2022/12/31 06:14:51;;;;;;;0.80;0.80;;;;;;;;;;5002039;28;92890;-67
2022/12/31 06:17:17;;;;;;;1.17;0.70;;;;;;;;;;5001402;28;92266;-65
2022/12/31 06:19:45;;;;;;;0.95;0.80;;;;;;;;;;5002054;28;92625;-66
2022/12/31 06:22:12;;;;;;;1.30;0.70;;;;;;;;;;5001810;28;93644;-65
2022/12/31 06:24:38;;;;;;;0.98;0.52;;;;;;;;;;5002595;28;91606;-66
2022/12/31 06:27:05;;;;;;;0.60;0.60;;;;;;;;;;5001722;28;92425;-65
2022/12/31 06:29:31;;;;;;;1.17;0.73;;;;;;;;;;5000657;28;92857;-65
2022/12/31 06:31:57;;;;;;;0.85;0.60;;;;;;;;;;4999844;28;94875;-65
2022/12/31 06:34:24;;;;;;;1.13;0.68;;;;;;;;;;5004413;28;94737;-64
2022/12/31 06:36:50;;;;;;;1.20;0.60;;;;;;;;;;5001384;28;92230;-65
2022/12/31 06:39:17;;;;;;;1.67;0.68;;;;;;;;;;5001713;28;92481;-67
2022/12/31 06:41:43;;;;;;;1.35;0.70;;;;;;;;;;5000060;28;93132;-65
2022/12/31 06:44:09;;;;;;;1.08;0.70;;;;;;;;;;5000467;28;92427;-66
2022/12/31 06:46:36;;;;;;;0.60;0.60;;;;;;;;;;5003896;28;93763;-64
2022/12/31 06:49:02;;;;;;;1.15;0.60;;;;;;;;;;5005729;28;92010;-66
2022/12/31 06:51:28;;;;;;;1.10;0.55;;;;;;;;;;5005011;28;92213;-65
2022/12/31 06:53:55;;;;;;;0.55;0.55;;;;;;;;;;5005111;28;92423;-65
2022/12/31 06:56:23;;;;;;;0.70;0.70;;;;;;;;;;5006250;28;94791;-65
2022/12/31 06:58:59;;;;;;;1.52;0.60;;;;;;;;;;5004804;28;95185;-65
2022/12/31 07:01:25;;;;;;;1.38;0.70;;;;;;;;;;5003939;28;93338;-65
2022/12/31 07:03:51;;;;;;;0.80;0.80;;;;;;;;;;5005291;28;92476;-65
2022/12/31 07:06:38;;;;;;;0.65;0.60;;;;;;;;;;5004798;28;92403;-65
2022/12/31 07:09:23;;;;;;;0.60;0.60;;;;;;;;;;4992895;28;92746;-66
2022/12/31 07:11:49;;;;;;;1.23;0.70;;;;;;;;;;5004421;28;91988;-65
2022/12/31 07:14:19;;;;;;;1.02;0.73;;;;;;;;;;5003869;28;92769;-63
2022/12/31 07:16:58;;;;;;;1.95;0.88;;;;;;;;;;5004108;28;93146;-64
2022/12/31 07:19:30;;;;;;;0.88;0.65;;;;;;;;;;5008161;28;91993;-63
2022/12/31 07:21:57;;;;;;;0.95;0.70;;;;;;;;;;5002519;28;96550;-65
2022/12/31 07:24:24;;;;;;;0.80;0.60;;;;;;;;;;5004642;28;92310;-65
2022/12/31 07:26:57;;;;;;;0.70;0.63;;;;;;;;;;5004271;28;92460;-65
2022/12/31 07:29:50;;;;;;;0.65;0.65;;;;;;;;;;4991902;28;92800;-65
2022/12/31 07:32:19;;;;;;;0.73;0.50;;;;;;;;;;4986151;28;92423;-65
2022/12/31 07:35:00;;;;;;;1.52;0.55;;;;;;;;;;5004738;28;92590;-64
2022/12/31 07:37:27;;;;;;;0.40;0.40;;;;;;;;;;5004266;28;92783;-64
2022/12/31 07:40:02;;;;;;;1.65;0.50;;;;;;;;;;5005191;28;91461;-65
2022/12/31 07:42:28;;;;;;;1.52;0.60;;;;;;;;;;5006775;28;92091;-64
2022/12/31 07:45:13;;;;;;;0.60;0.50;;;;;;;;;;5004481;28;91962;-67
2022/12/31 07:47:40;;;;;;;1.35;0.60;;;;;;;;;;5001316;28;94485;-65
2022/12/31 07:50:12;;;;;;;0.93;0.52;;;;;;;;;;5003967;28;92794;-64
2022/12/31 07:52:39;;;;;;;0.73;0.52;;;;;;;;;;5003798;28;92339;-64
2022/12/31 07:55:05;;;;;;;0.47;0.40;;;;;;;;;;5002570;28;92587;-65
2022/12/31 07:57:35;;;;;;;0.57;0.40;;;;;;;;;;5002045;28;93144;-65
2022/12/31 08:00:08;;;;;;;0.75;0.50;;;;;;;;;;5004057;28;91976;-65
2022/12/31 08:03:00;;;;;;;0.30;0.30;;;;;;;;;;5003134;28;92325;-65
2022/12/31 08:05:44;;;;;;;1.45;0.50;;;;;;;;;;5007342;28;92273;-66
2022/12/31 08:08:11;;;;;;;0.73;0.60;;;;;;;;;;5004060;28;93079;-65
2022/12/31 08:10:37;;;;;;;0.52;0.40;;;;;;;;;;5003660;28;92841;-65
2022/12/31 08:13:07;;;;;;;0.57;0.57;;;;;;;;;;5002041;28;94662;-66
2022/12/31 08:15:35;;;;;;;0.55;0.50;;;;;;;;;;5003554;28;94794;-66
2022/12/31 08:18:02;;;;;;;0.55;0.55;;;;;;;;;;5003496;28;92818;-63
2022/12/31 08:20:29;;;;;;;1.30;0.70;;;;;;;;;;5003703;28;92469;-63
2022/12/31 08:23:01;;;;;;;0.85;0.40;;;;;;;;;;4999063;28;92857;-65
2022/12/31 08:25:36;;;;;;;0.70;0.70;;;;;;;;;;5006487;28;92787;-66
2022/12/31 08:28:21;;;;;;;0.40;0.40;;;;;;;;;;5003772;28;92251;-65
2022/12/31 08:30:56;;;;;;;0.50;0.50;;;;;;;;;;5003813;28;91843;-65
2022/12/31 08:33:31;;;;;;;1.00;0.52;;;;;;;;;;5003512;28;92288;-65
2022/12/31 08:36:07;;;;;;;0.30;0.30;;;;;;;;;;5003516;28;92397;-63
2022/12/31 08:38:36;;;;;;;0.70;0.50;;;;;;;;;;5001319;28;95793;-64
2022/12/31 08:41:02;;;;;;;0.65;0.50;;;;;;;;;;5003079;28;92028;-66
2022/12/31 08:43:38;;;;;;;0.80;0.60;;;;;;;;;;5003205;28;93393;-65
2022/12/31 08:46:06;;;;;;;0.50;0.50;;;;;;;;;;5002752;28;93167;-65
2022/12/31 08:48:40;;;;;;;0.60;0.40;;;;;;;;;;5006100;28;92073;-65
2022/12/31 08:51:20;;;;;;;0.60;0.60;;;;;;;;;;5002835;28;92812;-65
2022/12/31 08:53:47;;;;;;;0.55;0.40;;;;;;;;;;5002332;28;92164;-65
2022/12/31 08:56:24;;;;;;;1.27;0.55;;;;;;;;;;5003439;28;92946;-66
2022/12/31 08:59:00;;;;;;;0.40;0.40;;;;;;;;;;5002534;28;92807;-64
2022/12/31 09:01:30;;;;;;;0.60;0.60;;;;;;;;;;5002176;28;92141;-65
2022/12/31 09:04:00;;;;;;;0.65;0.30;;;;;;;;;;5001250;28;94875;-66
2022/12/31 09:06:35;;;;;;;0.45;0.45;;;;;;;;;;5001412;28;92382;-65
2022/12/31 09:09:01;;;;;;;0.50;0.50;;;;;;;;;;5002213;28;92058;-64
2022/12/31 09:11:31;;;;;;;0.70;0.50;;;;;;;;;;5004999;28;92786;-66
2022/12/31 09:14:01;;;;;;;0.95;0.50;;;;;;;;;;5002514;28;92366;-65
2022/12/31 09:16:34;;;;;;;0.40;0.38;;;;;;;;;;5002134;28;92498;-65
2022/12/31 09:19:00;;;;;;;0.50;0.50;;;;;;;;;;5002447;28;93055;-65
2022/12/31 09:21:27;;;;;;;0.98;0.52;;;;;;;;;;5002355;28;91757;-65
2022/12/31 09:23:53;;;;;;;0.68;0.60;;;;;;;;;;5002446;28;92500;-65
2022/12/31 09:26:22;;;;;;;0.63;0.43;;;;;;;;;;5001845;28;92749;-66
2022/12/31 09:28:52;;;;;;;0.50;0.50;;;;;;;;;;4999281;28;94520;-66
2022/12/31 09:31:37;;;;;;;0.63;0.50;;;;;;;;;;5001865;28;95185;-66
2022/12/31 09:34:12;;;;;;;0.50;0.50;;;;;;;;;;5005013;28;92616;-66
2022/12/31 09:36:42;;;;;;;0.65;0.50;;;;;;;;;;5001815;28;92541;-64
2022/12/31 09:39:24;;;;;;;0.80;0.50;;;;;;;;;;5002145;28;93375;-67
2022/12/31 09:42:03;;;;;;;0.85;0.70;;;;;;;;;;4999913;28;92149;-66
2022/12/31 09:44:48;;;;;;;0.60;0.50;;;;;;;;;;5001520;28;92706;-66
2022/12/31 09:47:47;;;;;;;1.25;0.50;;;;;;;;;;5001710;28;92074;-66
2022/12/31 09:50:32;;;;;;;0.88;0.50;;;;;;;;;;5001863;28;92405;-65
2022/12/31 09:53:17;;;;;;;0.70;0.57;;;;;;;;;;5001556;28;92587;-66
2022/12/31 09:56:01;;;;;;;0.40;0.40;;;;;;;;;;4999898;28;95237;-65
2022/12/31 09:58:32;;;;;;;0.63;0.50;;;;;;;;;;5004235;28;92332;-65
2022/12/31 10:01:10;;;;;;;0.90;0.47;;;;;;;;;;5000871;28;92724;-66
2022/12/31 10:03:57;;;;;;;0.90;0.57;;;;;;;;;;5001594;28;93928;-66
2022/12/31 10:06:23;;;;;;;;;;;;;;;;;;5001866;28;92510;-66
2022/12/31 10:09:01;;;;;;;1.33;0.60;;;;;;;;;;5000501;28;122123;-66
2022/12/31 10:11:27;;;;;;;1.52;0.50;;;;;;;;;;5001625;28;92281;-65
2022/12/31 10:13:54;;;;;;;0.82;0.80;;;;;;;;;;5001896;28;93032;-65
2022/12/31 10:16:38;;;;;;;1.27;0.60;;;;;;;;;;5000952;28;93525;-65
2022/12/31 10:19:17;;;;;;;1.25;0.60;;;;;;;;;;4989316;28;92327;-66
2022/12/31 10:22:02;;;;;;;0.65;0.60;;;;;;;;;;5002124;28;95239;-66
2022/12/31 10:24:48;;;;;;;0.85;0.50;;;;;;;;;;4990605;28;92012;-65
2022/12/31 10:27:32;;;;;;;0.60;0.60;;;;;;;;;;4998542;28;92290;-66
2022/12/31 10:30:10;;;;;;;1.50;0.60;;;;;;;;;;5000971;28;94086;-66
2022/12/31 10:32:37;;;;;;;1.00;0.60;;;;;;;;;;5000985;28;92155;-67
2022/12/31 10:35:09;;;;;;;1.40;0.52;;;;;;;;;;5001143;28;92471;-65
2022/12/31 10:37:46;;;;;;;0.50;0.50;;;;;;;;;;5000492;28;92756;-68
2022/12/31 10:40:18;;;;;;;1.52;0.52;;;;;;;;;;5001649;28;91577;-65
2022/12/31 10:42:45;;;;;;;0.63;0.50;;;;;;;;;;5003430;28;92007;-65
2022/12/31 10:45:24;;;;;;;0.90;0.40;;;;;;;;;;5000976;28;92178;-65
2022/12/31 10:48:02;;;;;;;1.00;0.70;;;;;;;;;;4997927;28;94826;-68
2022/12/31 10:50:47;;;;;;;0.65;0.63;;;;;;;;;;5000961;28;92819;-66
2022/12/31 10:53:15;;;;;;;;;;;;;;;;;;5001099;28;92134;-65
2022/12/31 10:55:44;;;;;;;1.58;0.65;;;;;;;;;;5001849;28;116063;-65
2022/12/31 10:58:16;;;;;;;1.02;0.60;;;;;;;;;;4999949;28;93267;-64
2022/12/31 11:00:46;;;;;;;0.73;0.52;;;;;;;;;;5000786;28;92062;-66
2022/12/31 11:03:27;;;;;;;1.90;0.77;;;;;;;;;;5000585;28;92490;-65
2022/12/31 11:06:04;;;;;;;0.57;0.57;;;;;;;;;;5002719;28;92591;-65
2022/12/31 11:08:52;;;;;;;1.20;0.80;;;;;;;;;;4999094;28;93667;-65
2022/12/31 11:11:18;;;;;;;0.82;0.75;;;;;;;;;;5000407;28;93407;-66
2022/12/31 11:14:03;;;;;;;1.23;0.70;;;;;;;;;;4998661;28;94920;-66
2022/12/31 11:16:46;;;;;;;1.63;0.70;;;;;;;;;;4998798;28;94906;-66
2022/12/31 11:19:16;;;;;;;2.47;1.00;;;;;;;;;;5003298;28;92342;-66
2022/12/31 11:21:43;;;;;;;2.42;0.80;;;;;;;;;;5000247;28;92043;-66
2022/12/31 11:24:26;;;;;;;1.08;0.70;;;;;;;;;;4986773;28;92480;-64
2022/12/31 11:27:08;;;;;;;1.60;0.70;;;;;;;;;;4999989;28;92946;-66
2022/12/31 11:29:51;;;;;;;0.82;0.68;;;;;;;;;;5003709;28;92200;-66
2022/12/31 11:32:36;;;;;;;1.50;0.80;;;;;;;;;;5003101;28;92369;-66
2022/12/31 11:35:03;;;;;;;0.82;0.60;;;;;;;;;;5003907;28;92370;-66
2022/12/31 11:37:30;;;;;;;1.50;0.70;;;;;;;;;;5002231;28;92635;-66
2022/12/31 11:40:16;;;;;;;2.97;1.00;;;;;;;;;;5002030;28;95670;-65
2022/12/31 11:42:52;;;;;;;1.98;0.90;;;;;;;;;;5017336;28;92419;-65
2022/12/31 11:45:41;;;;;;;2.65;0.90;;;;;;;;;;5003857;28;92820;-65
2022/12/31 11:48:21;;;;;;;1.60;0.80;;;;;;;;;;5003421;28;92728;-66
2022/12/31 11:51:16;;;;;;;2.25;0.90;;;;;;;;;;5003882;28;92405;-66
2022/12/31 11:54:01;;;;;;;2.17;1.00;;;;;;;;;;4997638;28;92401;-66
2022/12/31 11:56:32;;;;;;;0.85;0.70;;;;;;;;;;5003283;28;92516;-65
2022/12/31 11:59:00;;;;;;;1.85;0.85;;;;;;;;;;5003456;28;92431;-66
2022/12/31 12:01:40;;;;;;;2.58;0.80;;;;;;;;;;5002621;28;92706;-66
2022/12/31 12:04:08;;;;;;;1.70;0.98;;;;;;;;;;5002521;28;92699;-66
2022/12/31 12:06:34;;;;;;;1.65;0.90;;;;;;;;;;5001345;28;95821;-66
2022/12/31 12:09:10;;;;;;;1.30;0.80;;;;;;;;;;5002926;28;92735;-65
2022/12/31 12:11:37;;;;;;;1.90;0.90;;;;;;;;;;5002786;28;93018;-65
2022/12/31 12:14:22;;;;;;;0.98;0.90;;;;;;;;;;5003388;28;92403;-65
2022/12/31 12:16:54;;;;;;;2.47;0.98;;;;;;;;;;5005779;28;93665;-65
2022/12/31 12:19:31;;;;;;;1.50;0.73;;;;;;;;;;5003758;28;92448;-66
2022/12/31 12:21:57;;;;;;;2.40;0.80;;;;;;;;;;5001347;28;94746;-66
2022/12/31 12:24:25;;;;;;;2.72;1.20;;;;;;;;;;5003242;28;91690;-64
2022/12/31 12:26:52;;;;;;;1.85;1.02;;;;;;;;;;5002990;28;92565;-66
2022/12/31 12:29:20;;;;;;;2.35;1.30;;;;;;;;;;5002923;28;93241;-65
2022/12/31 12:31:54;;;;;;;2.08;1.10;;;;;;;;;;5001206;28;94492;-65
2022/12/31 12:34:22;;;;;;;3.78;1.40;;;;;;;;;;5003233;28;95340;-65
2022/12/31 12:36:49;;;;;;;3.13;1.30;;;;;;;;;;5001791;28;92415;-65
2022/12/31 12:39:24;;;;;;;3.33;1.23;;;;;;;;;;5005834;28;92284;-65
2022/12/31 12:42:00;;;;;;;2.40;1.20;;;;;;;;;;5001860;28;92860;-65
2022/12/31 12:44:26;;;;;;;2.25;1.17;;;;;;;;;;5000626;28;92437;-66
2022/12/31 12:46:53;;;;;;;2.17;1.02;;;;;;;;;;5002724;28;92849;-65
2022/12/31 12:49:27;;;;;;;3.13;1.20;;;;;;;;;;5003224;28;92263;-64
2022/12/31 12:51:53;;;;;;;;;;;;;;;;;;5002672;28;93172;-65
2022/12/31 12:54:31;;;;;;;3.15;1.27;;;;;;;;;;5004502;28;92032;-65
2022/12/31 12:57:17;;;;;;;2.70;1.10;;;;;;;;;;5000597;28;95301;-65
2022/12/31 12:59:55;;;;;;;2.90;1.35;;;;;;;;;;5005387;28;92387;-65
2022/12/31 13:02:31;;;;;;;2.35;1.20;;;;;;;;;;5001991;28;92798;-65
2022/12/31 13:05:02;;;;;;;2.72;1.30;;;;;;;;;;5002349;28;92334;-66
2022/12/31 13:07:40;;;;;;;2.33;1.10;;;;;;;;;;5001141;28;92479;-65
2022/12/31 13:10:14;;;;;;;3.35;1.50;;;;;;;;;;5002426;28;92778;-64
2022/12/31 13:13:01;;;;;;;2.35;1.20;;;;;;;;;;5001927;28;92130;-68
2022/12/31 13:15:55;;;;;;;2.55;1.30;;;;;;;;;;5002758;28;92717;-65
2022/12/31 13:18:40;;;;;;;3.45;1.23;;;;;;;;;;5000511;28;92952;-66
2022/12/31 13:21:07;;;;;;;3.55;1.27;;;;;;;;;;5002208;28;92422;-63
2022/12/31 13:23:37;;;;;;;2.97;1.10;;;;;;;;;;5003406;28;94531;-66
2022/12/31 13:26:11;;;;;;;3.25;1.30;;;;;;;;;;5001984;28;92249;-66
2022/12/31 13:28:41;;;;;;;2.90;1.30;;;;;;;;;;5001924;28;92743;-67
2022/12/31 13:31:13;;;;;;;3.13;1.30;;;;;;;;;;5001549;28;92695;-66
2022/12/31 13:33:41;;;;;;;2.72;1.50;;;;;;;;;;5001842;28;92286;-65
2022/12/31 13:36:12;;;;;;;4.78;1.40;;;;;;;;;;5001864;28;92493;-65
2022/12/31 13:38:47;;;;;;;3.95;1.40;;;;;;;;;;5000514;28;92545;-66
2022/12/31 13:41:25;;;;;;;3.10;1.30;;;;;;;;;;5017576;28;91501;-65
2022/12/31 13:44:01;;;;;;;3.05;1.30;;;;;;;;;;5002328;28;92202;-64
2022/12/31 13:46:45;;;;;;;2.42;1.17;;;;;;;;;;5004577;28;93449;-65
2022/12/31 13:49:14;;;;;;;3.60;1.30;;;;;;;;;;4995150;28;94637;-66
2022/12/31 13:51:45;;;;;;;3.50;1.50;;;;;;;;;;5001348;28;92976;-65
2022/12/31 13:54:18;;;;;;;2.70;1.60;;;;;;;;;;5000244;28;92306;-65
2022/12/31 13:56:45;;;;;;;3.15;1.30;;;;;;;;;;5001389;28;92483;-65
2022/12/31 13:59:16;;;;;;;2.95;1.50;;;;;;;;;;5001085;28;92787;-66
2022/12/31 14:02:03;;;;;;;4.10;1.58;;;;;;;;;;5000862;28;92469;-65
2022/12/31 14:04:37;;;;;;;3.90;1.30;;;;;;;;;;4997802;28;92481;-65
2022/12/31 14:07:09;;;;;;;3.85;1.45;;;;;;;;;;5001681;28;92533;-65
2022/12/31 14:09:36;;;;;;;5.28;1.73;;;;;;;;;;5004883;28;92470;-66
2022/12/31 14:12:26;;;;;;;5.03;1.80;;;;;;;;;;5001097;28;92168;-65
2022/12/31 14:15:05;;;;;;;3.53;1.48;;;;;;;;;;5009018;28;94742;-66
2022/12/31 14:17:45;;;;;;;3.95;1.58;;;;;;;;;;4988646;28;95206;-65
2022/12/31 14:20:32;;;;;;;4.30;1.60;;;;;;;;;;5001376;28;93256;-65
2022/12/31 14:23:19;;;;;;;3.78;1.65;;;;;;;;;;4992310;28;93122;-67
2022/12/31 14:25:50;;;;;;;4.03;1.90;;;;;;;;;;5000886;28;92443;-66
2022/12/31 14:28:18;;;;;;;3.17;1.50;;;;;;;;;;5001267;28;93904;-64
2022/12/31 14:30:47;;;;;;;4.78;1.67;;;;;;;;;;5001347;28;92416;-67
2022/12/31 14:33:33;;;;;;;4.13;1.55;;;;;;;;;;5005022;28;92846;-64
2022/12/31 14:35:59;;;;;;;;;;;;;;;;;;5001994;28;92317;-66
2022/12/31 14:38:43;;;;;;;4.72;1.70;;;;;;;;;;5002721;28;116220;-65
2022/12/31 14:41:33;;;;;;;3.72;1.52;;;;;;;;;;4998341;28;97291;-66
2022/12/31 14:44:12;;;;;;;4.22;1.88;;;;;;;;;;5000340;28;92167;-65
2022/12/31 14:46:38;;;;;;;3.05;1.75;;;;;;;;;;5001726;28;93025;-66
2022/12/31 14:49:13;;;;;;;4.22;1.80;;;;;;;;;;5001392;28;92045;-66
2022/12/31 14:51:40;;;;;;;5.43;1.77;;;;;;;;;;4999617;28;92429;-65
2022/12/31 14:54:26;;;;;;;4.40;1.98;;;;;;;;;;5004682;28;92484;-65
2022/12/31 14:56:54;;;;;;;3.17;1.60;;;;;;;;;;5001119;28;92196;-66
2022/12/31 14:59:25;;;;;;;3.20;1.63;;;;;;;;;;5001837;28;92814;-65
2022/12/31 15:01:52;;;;;;;3.40;1.60;;;;;;;;;;5000577;28;92808;-65
2022/12/31 15:04:29;;;;;;;3.40;1.50;;;;;;;;;;5001471;28;91975;-66
2022/12/31 15:07:04;;;;;;;4.57;1.80;;;;;;;;;;5001332;28;94484;-66
2022/12/31 15:10:03;;;;;;;3.90;1.75;;;;;;;;;;5004930;28;92018;-65
2022/12/31 15:12:49;;;;;;;3.65;1.60;;;;;;;;;;4990952;28;92283;-64
2022/12/31 15:15:24;;;;;;;4.32;2.00;;;;;;;;;;5004969;28;92461;-65
2022/12/31 15:17:59;;;;;;;6.40;1.95;;;;;;;;;;5007269;28;93616;-65
2022/12/31 15:20:43;;;;;;;4.50;1.73;;;;;;;;;;5004714;28;92964;-65
2022/12/31 15:23:13;;;;;;;4.00;1.70;;;;;;;;;;4996544;28;93250;-65